sensor_id;sensor_type;location;lat;lon;timestamp;temperature;humidity
21807;DHT22;11065;50.786;7.840;2023-04-08T00:00:24;11.30;57.60
21807;DHT22;11065;50.786;7.840;2023-04-08T00:02:52;11.30;57.70
21807;DHT22;11065;50.786;7.840;2023-04-08T00:05:21;11.30;57.60
21807;DHT22;11065;50.786;7.840;2023-04-08T00:07:49;11.30;57.70
21807;DHT22;11065;50.786;7.840;2023-04-08T00:10:17;11.30;57.70
21807;DHT22;11065;50.786;7.840;2023-04-08T00:12:47;11.30;57.80
21807;DHT22;11065;50.786;7.840;2023-04-08T00:15:15;11.30;57.80
21807;DHT22;11065;50.786;7.840;2023-04-08T00:17:43;11.30;57.80
21807;DHT22;11065;50.786;7.840;2023-04-08T00:20:12;11.30;57.70
21807;DHT22;11065;50.786;7.840;2023-04-08T00:22:40;11.20;57.70
21807;DHT22;11065;50.786;7.840;2023-04-08T00:25:08;11.20;57.70
21807;DHT22;11065;50.786;7.840;2023-04-08T00:27:36;11.20;57.80
21807;DHT22;11065;50.786;7.840;2023-04-08T00:30:07;11.20;57.80
21807;DHT22;11065;50.786;7.840;2023-04-08T00:32:35;11.20;57.80
21807;DHT22;11065;50.786;7.840;2023-04-08T00:35:04;11.20;57.80
21807;DHT22;11065;50.786;7.840;2023-04-08T00:37:32;11.20;57.80
21807;DHT22;11065;50.786;7.840;2023-04-08T00:40:00;11.20;57.70
21807;DHT22;11065;50.786;7.840;2023-04-08T00:42:29;11.10;57.80
21807;DHT22;11065;50.786;7.840;2023-04-08T00:44:57;11.10;57.80
21807;DHT22;11065;50.786;7.840;2023-04-08T00:47:27;11.10;57.80
21807;DHT22;11065;50.786;7.840;2023-04-08T00:49:55;11.10;57.90
21807;DHT22;11065;50.786;7.840;2023-04-08T00:52:24;11.10;57.90
21807;DHT22;11065;50.786;7.840;2023-04-08T00:54:52;11.10;58.00
21807;DHT22;11065;50.786;7.840;2023-04-08T00:57:21;11.00;57.90
21807;DHT22;11065;50.786;7.840;2023-04-08T00:59:50;11.10;58.00
21807;DHT22;11065;50.786;7.840;2023-04-08T01:02:28;11.10;57.90
21807;DHT22;11065;50.786;7.840;2023-04-08T01:05:01;11.00;58.00
21807;DHT22;11065;50.786;7.840;2023-04-08T01:07:32;11.00;57.90
21807;DHT22;11065;50.786;7.840;2023-04-08T01:10:04;11.00;57.90
21807;DHT22;11065;50.786;7.840;2023-04-08T01:12:39;11.00;57.90
21807;DHT22;11065;50.786;7.840;2023-04-08T01:15:10;11.00;57.90
21807;DHT22;11065;50.786;7.840;2023-04-08T01:17:42;11.00;57.70
21807;DHT22;11065;50.786;7.840;2023-04-08T01:20:12;11.00;57.70
21807;DHT22;11065;50.786;7.840;2023-04-08T01:22:53;10.90;57.70
21807;DHT22;11065;50.786;7.840;2023-04-08T01:25:26;10.90;57.80
21807;DHT22;11065;50.786;7.840;2023-04-08T01:27:59;10.90;57.70
21807;DHT22;11065;50.786;7.840;2023-04-08T01:30:28;10.90;57.70
21807;DHT22;11065;50.786;7.840;2023-04-08T01:32:58;10.90;57.80
21807;DHT22;11065;50.786;7.840;2023-04-08T01:35:30;10.90;57.90
21807;DHT22;11065;50.786;7.840;2023-04-08T01:38:02;10.90;58.00
21807;DHT22;11065;50.786;7.840;2023-04-08T01:40:31;10.80;58.00
21807;DHT22;11065;50.786;7.840;2023-04-08T01:43:04;10.90;58.10
21807;DHT22;11065;50.786;7.840;2023-04-08T01:45:34;10.90;58.10
21807;DHT22;11065;50.786;7.840;2023-04-08T01:48:02;10.90;58.00
21807;DHT22;11065;50.786;7.840;2023-04-08T01:50:31;10.90;58.00
21807;DHT22;11065;50.786;7.840;2023-04-08T01:53:00;10.90;58.00
21807;DHT22;11065;50.786;7.840;2023-04-08T01:55:29;10.90;58.10
21807;DHT22;11065;50.786;7.840;2023-04-08T01:57:59;10.90;58.00
21807;DHT22;11065;50.786;7.840;2023-04-08T02:00:30;10.90;58.10
21807;DHT22;11065;50.786;7.840;2023-04-08T02:02:59;10.90;58.10
21807;DHT22;11065;50.786;7.840;2023-04-08T02:05:28;10.90;58.10
21807;DHT22;11065;50.786;7.840;2023-04-08T02:07:56;10.90;58.10
21807;DHT22;11065;50.786;7.840;2023-04-08T02:10:25;11.00;58.20
21807;DHT22;11065;50.786;7.840;2023-04-08T02:12:56;11.00;58.10
21807;DHT22;11065;50.786;7.840;2023-04-08T02:15:25;11.00;58.10
21807;DHT22;11065;50.786;7.840;2023-04-08T02:18:02;11.00;58.10
21807;DHT22;11065;50.786;7.840;2023-04-08T02:20:37;11.00;57.90
21807;DHT22;11065;50.786;7.840;2023-04-08T02:23:08;11.00;57.70
21807;DHT22;11065;50.786;7.840;2023-04-08T02:25:39;11.00;57.60
21807;DHT22;11065;50.786;7.840;2023-04-08T02:28:10;11.00;57.50
21807;DHT22;11065;50.786;7.840;2023-04-08T02:30:41;11.00;57.50
21807;DHT22;11065;50.786;7.840;2023-04-08T02:33:12;11.00;57.60
21807;DHT22;11065;50.786;7.840;2023-04-08T02:35:41;10.90;57.50
21807;DHT22;11065;50.786;7.840;2023-04-08T02:38:09;10.90;57.60
21807;DHT22;11065;50.786;7.840;2023-04-08T02:40:37;11.00;57.70
21807;DHT22;11065;50.786;7.840;2023-04-08T02:43:06;11.00;57.80
21807;DHT22;11065;50.786;7.840;2023-04-08T02:45:37;10.90;57.80
21807;DHT22;11065;50.786;7.840;2023-04-08T02:48:05;10.90;57.80
21807;DHT22;11065;50.786;7.840;2023-04-08T02:50:35;10.90;57.80
21807;DHT22;11065;50.786;7.840;2023-04-08T02:53:03;11.00;57.90
21807;DHT22;11065;50.786;7.840;2023-04-08T02:55:33;10.90;57.80
21807;DHT22;11065;50.786;7.840;2023-04-08T02:58:01;10.90;57.70
21807;DHT22;11065;50.786;7.840;2023-04-08T03:00:29;11.00;57.70
21807;DHT22;11065;50.786;7.840;2023-04-08T03:02:57;10.90;57.50
21807;DHT22;11065;50.786;7.840;2023-04-08T03:05:26;10.90;57.50
21807;DHT22;11065;50.786;7.840;2023-04-08T03:07:55;10.90;57.60
21807;DHT22;11065;50.786;7.840;2023-04-08T03:10:23;10.80;57.70
21807;DHT22;11065;50.786;7.840;2023-04-08T03:12:52;10.80;57.70
21807;DHT22;11065;50.786;7.840;2023-04-08T03:15:20;10.80;57.80
21807;DHT22;11065;50.786;7.840;2023-04-08T03:17:48;10.80;57.80
21807;DHT22;11065;50.786;7.840;2023-04-08T03:20:16;10.80;57.90
21807;DHT22;11065;50.786;7.840;2023-04-08T03:22:44;10.80;57.90
21807;DHT22;11065;50.786;7.840;2023-04-08T03:25:13;10.80;57.90
21807;DHT22;11065;50.786;7.840;2023-04-08T03:27:41;10.80;57.80
21807;DHT22;11065;50.786;7.840;2023-04-08T03:30:10;10.80;57.70
21807;DHT22;11065;50.786;7.840;2023-04-08T03:32:38;10.80;57.80
21807;DHT22;11065;50.786;7.840;2023-04-08T03:35:07;10.80;57.80
21807;DHT22;11065;50.786;7.840;2023-04-08T03:37:35;10.80;57.80
21807;DHT22;11065;50.786;7.840;2023-04-08T03:40:04;10.80;57.80
21807;DHT22;11065;50.786;7.840;2023-04-08T03:42:34;10.70;57.80
21807;DHT22;11065;50.786;7.840;2023-04-08T03:45:02;10.70;57.80
21807;DHT22;11065;50.786;7.840;2023-04-08T03:47:30;10.70;57.70
21807;DHT22;11065;50.786;7.840;2023-04-08T03:49:58;10.70;57.70
21807;DHT22;11065;50.786;7.840;2023-04-08T03:52:26;10.70;57.80
21807;DHT22;11065;50.786;7.840;2023-04-08T03:54:54;10.70;57.80
21807;DHT22;11065;50.786;7.840;2023-04-08T03:57:22;10.70;57.80
21807;DHT22;11065;50.786;7.840;2023-04-08T03:59:52;10.70;57.80
21807;DHT22;11065;50.786;7.840;2023-04-08T04:02:20;10.70;57.80
21807;DHT22;11065;50.786;7.840;2023-04-08T04:04:48;10.70;57.80
21807;DHT22;11065;50.786;7.840;2023-04-08T04:07:17;10.70;57.80
21807;DHT22;11065;50.786;7.840;2023-04-08T04:09:45;10.70;57.70
21807;DHT22;11065;50.786;7.840;2023-04-08T04:12:13;10.70;57.70
21807;DHT22;11065;50.786;7.840;2023-04-08T04:14:41;10.70;57.80
21807;DHT22;11065;50.786;7.840;2023-04-08T04:17:10;10.70;57.70
21807;DHT22;11065;50.786;7.840;2023-04-08T04:19:38;10.70;57.80
21807;DHT22;11065;50.786;7.840;2023-04-08T04:22:07;10.70;57.70
21807;DHT22;11065;50.786;7.840;2023-04-08T04:24:35;10.60;57.60
21807;DHT22;11065;50.786;7.840;2023-04-08T04:27:03;10.60;57.60
21807;DHT22;11065;50.786;7.840;2023-04-08T04:29:31;10.60;57.60
21807;DHT22;11065;50.786;7.840;2023-04-08T04:31:59;10.60;57.50
21807;DHT22;11065;50.786;7.840;2023-04-08T04:34:28;10.60;57.60
21807;DHT22;11065;50.786;7.840;2023-04-08T04:36:56;10.60;57.60
21807;DHT22;11065;50.786;7.840;2023-04-08T04:39:24;10.60;57.60
21807;DHT22;11065;50.786;7.840;2023-04-08T04:41:52;10.60;57.60
21807;DHT22;11065;50.786;7.840;2023-04-08T04:44:23;10.60;57.50
21807;DHT22;11065;50.786;7.840;2023-04-08T04:46:51;10.60;57.50
21807;DHT22;11065;50.786;7.840;2023-04-08T04:49:19;10.60;57.50
21807;DHT22;11065;50.786;7.840;2023-04-08T04:51:49;10.60;57.50
21807;DHT22;11065;50.786;7.840;2023-04-08T04:54:17;10.60;57.50
21807;DHT22;11065;50.786;7.840;2023-04-08T04:56:45;10.60;57.40
21807;DHT22;11065;50.786;7.840;2023-04-08T04:59:13;10.50;57.40
21807;DHT22;11065;50.786;7.840;2023-04-08T05:01:41;10.60;57.40
21807;DHT22;11065;50.786;7.840;2023-04-08T05:04:09;10.50;57.40
21807;DHT22;11065;50.786;7.840;2023-04-08T05:06:37;10.50;57.40
21807;DHT22;11065;50.786;7.840;2023-04-08T05:09:07;10.50;57.40
21807;DHT22;11065;50.786;7.840;2023-04-08T05:11:35;10.50;57.50
21807;DHT22;11065;50.786;7.840;2023-04-08T05:14:03;10.50;57.40
21807;DHT22;11065;50.786;7.840;2023-04-08T05:16:31;10.50;57.40
21807;DHT22;11065;50.786;7.840;2023-04-08T05:18:59;10.40;57.50
21807;DHT22;11065;50.786;7.840;2023-04-08T05:21:27;10.50;57.60
21807;DHT22;11065;50.786;7.840;2023-04-08T05:23:56;10.50;57.60
21807;DHT22;11065;50.786;7.840;2023-04-08T05:26:25;10.50;57.60
21807;DHT22;11065;50.786;7.840;2023-04-08T05:28:53;10.50;57.60
21807;DHT22;11065;50.786;7.840;2023-04-08T05:31:21;10.50;57.60
21807;DHT22;11065;50.786;7.840;2023-04-08T05:33:49;10.50;57.60
21807;DHT22;11065;50.786;7.840;2023-04-08T05:36:20;10.50;57.60
21807;DHT22;11065;50.786;7.840;2023-04-08T05:38:48;10.50;57.50
21807;DHT22;11065;50.786;7.840;2023-04-08T05:41:16;10.50;57.50
21807;DHT22;11065;50.786;7.840;2023-04-08T05:43:45;10.50;57.50
21807;DHT22;11065;50.786;7.840;2023-04-08T05:46:14;10.50;57.50
21807;DHT22;11065;50.786;7.840;2023-04-08T05:48:43;10.50;57.40
21807;DHT22;11065;50.786;7.840;2023-04-08T05:51:14;10.50;57.30
21807;DHT22;11065;50.786;7.840;2023-04-08T05:53:44;10.50;57.20
21807;DHT22;11065;50.786;7.840;2023-04-08T05:56:12;10.50;57.10
21807;DHT22;11065;50.786;7.840;2023-04-08T05:58:40;10.50;57.10
21807;DHT22;11065;50.786;7.840;2023-04-08T06:01:10;10.50;57.00
21807;DHT22;11065;50.786;7.840;2023-04-08T06:03:38;10.50;57.00
21807;DHT22;11065;50.786;7.840;2023-04-08T06:06:08;10.50;57.00
21807;DHT22;11065;50.786;7.840;2023-04-08T06:08:38;10.50;57.00
21807;DHT22;11065;50.786;7.840;2023-04-08T06:11:06;10.50;56.90
21807;DHT22;11065;50.786;7.840;2023-04-08T06:13:35;10.50;57.00
21807;DHT22;11065;50.786;7.840;2023-04-08T06:16:13;10.50;57.00
21807;DHT22;11065;50.786;7.840;2023-04-08T06:18:46;10.50;57.00
21807;DHT22;11065;50.786;7.840;2023-04-08T06:21:15;10.50;57.00
21807;DHT22;11065;50.786;7.840;2023-04-08T06:23:43;10.50;57.00
21807;DHT22;11065;50.786;7.840;2023-04-08T06:26:11;10.50;56.90
21807;DHT22;11065;50.786;7.840;2023-04-08T06:28:39;10.50;56.80
21807;DHT22;11065;50.786;7.840;2023-04-08T06:31:07;10.50;56.80
21807;DHT22;11065;50.786;7.840;2023-04-08T06:33:37;10.50;56.80
21807;DHT22;11065;50.786;7.840;2023-04-08T06:36:06;10.50;56.80
21807;DHT22;11065;50.786;7.840;2023-04-08T06:38:34;10.50;56.70
21807;DHT22;11065;50.786;7.840;2023-04-08T06:41:02;10.50;56.80
21807;DHT22;11065;50.786;7.840;2023-04-08T06:43:31;10.60;56.90
21807;DHT22;11065;50.786;7.840;2023-04-08T06:45:59;10.60;56.90
21807;DHT22;11065;50.786;7.840;2023-04-08T06:48:27;10.60;56.90
21807;DHT22;11065;50.786;7.840;2023-04-08T06:50:59;10.60;56.90
21807;DHT22;11065;50.786;7.840;2023-04-08T06:53:28;10.70;57.00
21807;DHT22;11065;50.786;7.840;2023-04-08T06:55:57;10.70;56.90
21807;DHT22;11065;50.786;7.840;2023-04-08T06:58:25;10.70;56.90
21807;DHT22;11065;50.786;7.840;2023-04-08T07:00:53;10.70;56.90
21807;DHT22;11065;50.786;7.840;2023-04-08T07:03:22;10.80;56.90
21807;DHT22;11065;50.786;7.840;2023-04-08T07:05:51;10.80;56.90
21807;DHT22;11065;50.786;7.840;2023-04-08T07:08:20;10.80;56.80
21807;DHT22;11065;50.786;7.840;2023-04-08T07:10:48;10.80;56.70
21807;DHT22;11065;50.786;7.840;2023-04-08T07:13:18;10.90;56.60
21807;DHT22;11065;50.786;7.840;2023-04-08T07:15:46;10.90;56.50
21807;DHT22;11065;50.786;7.840;2023-04-08T07:18:14;10.80;56.30
21807;DHT22;11065;50.786;7.840;2023-04-08T07:20:42;10.80;56.10
21807;DHT22;11065;50.786;7.840;2023-04-08T07:23:11;10.80;56.10
21807;DHT22;11065;50.786;7.840;2023-04-08T07:25:41;10.80;56.20
21807;DHT22;11065;50.786;7.840;2023-04-08T07:28:08;10.80;56.30
21807;DHT22;11065;50.786;7.840;2023-04-08T07:30:37;10.80;56.50
21807;DHT22;11065;50.786;7.840;2023-04-08T07:33:05;10.80;56.60
21807;DHT22;11065;50.786;7.840;2023-04-08T07:35:33;10.80;56.60
21807;DHT22;11065;50.786;7.840;2023-04-08T07:38:02;10.80;56.70
21807;DHT22;11065;50.786;7.840;2023-04-08T07:40:30;10.90;56.70
21807;DHT22;11065;50.786;7.840;2023-04-08T07:42:59;10.90;56.60
21807;DHT22;11065;50.786;7.840;2023-04-08T07:45:27;11.00;56.50
21807;DHT22;11065;50.786;7.840;2023-04-08T07:47:56;11.00;56.60
21807;DHT22;11065;50.786;7.840;2023-04-08T07:50:24;11.10;56.80
21807;DHT22;11065;50.786;7.840;2023-04-08T07:52:52;11.20;56.90
21807;DHT22;11065;50.786;7.840;2023-04-08T07:55:21;11.20;56.90
21807;DHT22;11065;50.786;7.840;2023-04-08T07:57:49;11.20;56.60
21807;DHT22;11065;50.786;7.840;2023-04-08T08:00:19;11.30;56.50
21807;DHT22;11065;50.786;7.840;2023-04-08T08:02:47;11.30;56.40
21807;DHT22;11065;50.786;7.840;2023-04-08T08:05:16;11.40;56.40
21807;DHT22;11065;50.786;7.840;2023-04-08T08:07:44;11.40;56.40
21807;DHT22;11065;50.786;7.840;2023-04-08T08:10:12;11.40;56.30
21807;DHT22;11065;50.786;7.840;2023-04-08T08:12:40;11.50;56.20
21807;DHT22;11065;50.786;7.840;2023-04-08T08:15:09;11.50;56.30
21807;DHT22;11065;50.786;7.840;2023-04-08T08:17:39;11.50;56.30
21807;DHT22;11065;50.786;7.840;2023-04-08T08:20:07;11.60;56.30
21807;DHT22;11065;50.786;7.840;2023-04-08T08:22:36;11.60;56.20
21807;DHT22;11065;50.786;7.840;2023-04-08T08:25:22;11.60;56.20
21807;DHT22;11065;50.786;7.840;2023-04-08T08:27:52;11.70;56.20
21807;DHT22;11065;50.786;7.840;2023-04-08T08:30:21;11.70;56.10
21807;DHT22;11065;50.786;7.840;2023-04-08T08:32:50;11.70;55.90
21807;DHT22;11065;50.786;7.840;2023-04-08T08:35:22;11.70;55.80
21807;DHT22;11065;50.786;7.840;2023-04-08T08:37:50;11.70;55.70
21807;DHT22;11065;50.786;7.840;2023-04-08T08:40:18;11.70;55.80
21807;DHT22;11065;50.786;7.840;2023-04-08T08:42:49;11.70;55.80
21807;DHT22;11065;50.786;7.840;2023-04-08T08:45:18;11.70;55.70
21807;DHT22;11065;50.786;7.840;2023-04-08T08:47:46;11.70;55.60
21807;DHT22;11065;50.786;7.840;2023-04-08T08:50:18;11.70;55.60
21807;DHT22;11065;50.786;7.840;2023-04-08T08:52:50;11.60;55.60
21807;DHT22;11065;50.786;7.840;2023-04-08T08:55:19;11.60;55.80
21807;DHT22;11065;50.786;7.840;2023-04-08T08:58:08;11.70;56.00
21807;DHT22;11065;50.786;7.840;2023-04-08T09:00:37;11.70;56.10
21807;DHT22;11065;50.786;7.840;2023-04-08T09:03:15;11.70;56.10
21807;DHT22;11065;50.786;7.840;2023-04-08T09:05:50;11.80;55.90
21807;DHT22;11065;50.786;7.840;2023-04-08T09:08:25;11.80;55.80
21807;DHT22;11065;50.786;7.840;2023-04-08T09:10:54;11.90;55.70
21807;DHT22;11065;50.786;7.840;2023-04-08T09:13:22;11.90;55.80
21807;DHT22;11065;50.786;7.840;2023-04-08T09:16:00;11.90;55.80
21807;DHT22;11065;50.786;7.840;2023-04-08T09:18:29;12.00;55.90
21807;DHT22;11065;50.786;7.840;2023-04-08T09:20:59;12.00;55.90
21807;DHT22;11065;50.786;7.840;2023-04-08T09:23:40;12.00;55.70
21807;DHT22;11065;50.786;7.840;2023-04-08T09:26:09;12.00;55.50
21807;DHT22;11065;50.786;7.840;2023-04-08T09:28:39;12.10;55.60
21807;DHT22;11065;50.786;7.840;2023-04-08T09:31:18;12.10;55.50
21807;DHT22;11065;50.786;7.840;2023-04-08T09:33:46;12.00;55.20
21807;DHT22;11065;50.786;7.840;2023-04-08T09:36:17;12.00;55.20
21807;DHT22;11065;50.786;7.840;2023-04-08T09:38:45;12.00;55.20
21807;DHT22;11065;50.786;7.840;2023-04-08T09:41:14;11.90;55.20
21807;DHT22;11065;50.786;7.840;2023-04-08T09:43:46;11.90;55.30
21807;DHT22;11065;50.786;7.840;2023-04-08T09:46:17;11.90;55.40
21807;DHT22;11065;50.786;7.840;2023-04-08T09:48:48;11.80;55.40
21807;DHT22;11065;50.786;7.840;2023-04-08T09:51:21;11.80;55.60
21807;DHT22;11065;50.786;7.840;2023-04-08T09:53:55;11.80;55.70
21807;DHT22;11065;50.786;7.840;2023-04-08T09:56:32;11.90;55.90
21807;DHT22;11065;50.786;7.840;2023-04-08T09:59:06;11.90;55.90
21807;DHT22;11065;50.786;7.840;2023-04-08T10:01:38;12.00;55.90
21807;DHT22;11065;50.786;7.840;2023-04-08T10:04:08;12.00;55.90
21807;DHT22;11065;50.786;7.840;2023-04-08T10:06:40;12.00;55.80
21807;DHT22;11065;50.786;7.840;2023-04-08T10:09:08;12.10;55.90
21807;DHT22;11065;50.786;7.840;2023-04-08T10:11:37;12.10;55.90
21807;DHT22;11065;50.786;7.840;2023-04-08T10:14:05;12.20;56.00
21807;DHT22;11065;50.786;7.840;2023-04-08T10:16:33;12.10;55.80
21807;DHT22;11065;50.786;7.840;2023-04-08T10:19:01;12.20;55.90
21807;DHT22;11065;50.786;7.840;2023-04-08T10:21:51;12.20;55.90
21807;DHT22;11065;50.786;7.840;2023-04-08T10:24:19;12.30;55.80
21807;DHT22;11065;50.786;7.840;2023-04-08T10:26:51;12.30;55.80
21807;DHT22;11065;50.786;7.840;2023-04-08T10:29:40;12.30;55.80
21807;DHT22;11065;50.786;7.840;2023-04-08T10:32:26;12.30;55.90
21807;DHT22;11065;50.786;7.840;2023-04-08T10:34:55;12.40;56.10
21807;DHT22;11065;50.786;7.840;2023-04-08T10:37:25;12.50;56.20
21807;DHT22;11065;50.786;7.840;2023-04-08T10:39:54;12.50;56.20
21807;DHT22;11065;50.786;7.840;2023-04-08T10:42:26;12.60;56.10
21807;DHT22;11065;50.786;7.840;2023-04-08T10:44:59;12.60;55.90
21807;DHT22;11065;50.786;7.840;2023-04-08T10:47:28;12.70;56.00
21807;DHT22;11065;50.786;7.840;2023-04-08T10:49:56;12.70;55.80
21807;DHT22;11065;50.786;7.840;2023-04-08T10:52:26;12.70;55.80
21807;DHT22;11065;50.786;7.840;2023-04-08T10:54:54;12.80;55.80
21807;DHT22;11065;50.786;7.840;2023-04-08T10:57:25;12.80;55.90
21807;DHT22;11065;50.786;7.840;2023-04-08T10:59:53;12.90;55.90
21807;DHT22;11065;50.786;7.840;2023-04-08T11:02:22;12.90;55.90
21807;DHT22;11065;50.786;7.840;2023-04-08T11:04:59;13.00;55.90
21807;DHT22;11065;50.786;7.840;2023-04-08T11:07:28;13.00;55.70
21807;DHT22;11065;50.786;7.840;2023-04-08T11:09:56;13.10;55.60
21807;DHT22;11065;50.786;7.840;2023-04-08T11:12:26;13.10;55.60
21807;DHT22;11065;50.786;7.840;2023-04-08T11:14:54;13.10;55.60
21807;DHT22;11065;50.786;7.840;2023-04-08T11:17:22;13.20;55.60
21807;DHT22;11065;50.786;7.840;2023-04-08T11:19:51;13.20;55.60
21807;DHT22;11065;50.786;7.840;2023-04-08T11:22:19;13.30;55.60
21807;DHT22;11065;50.786;7.840;2023-04-08T11:24:49;13.40;55.70
21807;DHT22;11065;50.786;7.840;2023-04-08T11:27:18;13.40;55.60
21807;DHT22;11065;50.786;7.840;2023-04-08T11:29:48;13.40;55.60
21807;DHT22;11065;50.786;7.840;2023-04-08T11:32:17;13.60;55.80
21807;DHT22;11065;50.786;7.840;2023-04-08T11:34:46;13.70;55.60
21807;DHT22;11065;50.786;7.840;2023-04-08T11:37:14;13.80;55.60
21807;DHT22;11065;50.786;7.840;2023-04-08T11:39:43;13.80;55.60
21807;DHT22;11065;50.786;7.840;2023-04-08T11:42:26;13.90;55.70
21807;DHT22;11065;50.786;7.840;2023-04-08T11:44:54;14.10;55.30
21807;DHT22;11065;50.786;7.840;2023-04-08T11:47:29;14.20;55.70
21807;DHT22;11065;50.786;7.840;2023-04-08T11:49:58;14.30;55.60
21807;DHT22;11065;50.786;7.840;2023-04-08T11:52:40;14.50;55.90
21807;DHT22;11065;50.786;7.840;2023-04-08T11:55:09;14.70;55.60
21807;DHT22;11065;50.786;7.840;2023-04-08T11:57:38;14.90;56.60
21807;DHT22;11065;50.786;7.840;2023-04-08T12:00:07;15.20;56.40
21807;DHT22;11065;50.786;7.840;2023-04-08T12:02:38;15.50;55.30
21807;DHT22;11065;50.786;7.840;2023-04-08T12:05:08;15.80;56.30
21807;DHT22;11065;50.786;7.840;2023-04-08T12:07:36;16.20;56.20
21807;DHT22;11065;50.786;7.840;2023-04-08T12:10:05;16.60;55.90
21807;DHT22;11065;50.786;7.840;2023-04-08T12:12:33;17.10;56.30
21807;DHT22;11065;50.786;7.840;2023-04-08T12:15:04;17.50;56.00
21807;DHT22;11065;50.786;7.840;2023-04-08T12:17:33;17.90;55.20
21807;DHT22;11065;50.786;7.840;2023-04-08T12:20:01;18.30;54.60
21807;DHT22;11065;50.786;7.840;2023-04-08T12:22:30;18.50;53.70
21807;DHT22;11065;50.786;7.840;2023-04-08T12:24:58;18.70;52.90
21807;DHT22;11065;50.786;7.840;2023-04-08T12:27:28;18.70;52.20
21807;DHT22;11065;50.786;7.840;2023-04-08T12:29:56;18.90;52.10
21807;DHT22;11065;50.786;7.840;2023-04-08T12:32:26;19.00;52.10
21807;DHT22;11065;50.786;7.840;2023-04-08T12:34:54;19.10;51.80
21807;DHT22;11065;50.786;7.840;2023-04-08T12:37:22;19.20;51.60
21807;DHT22;11065;50.786;7.840;2023-04-08T12:39:50;19.30;51.10
21807;DHT22;11065;50.786;7.840;2023-04-08T12:42:18;19.40;50.40
21807;DHT22;11065;50.786;7.840;2023-04-08T12:44:46;19.30;49.80
21807;DHT22;11065;50.786;7.840;2023-04-08T12:47:14;19.30;49.60
21807;DHT22;11065;50.786;7.840;2023-04-08T12:49:44;19.10;49.40
21807;DHT22;11065;50.786;7.840;2023-04-08T12:52:15;19.20;49.30
21807;DHT22;11065;50.786;7.840;2023-04-08T12:54:44;19.20;49.20
21807;DHT22;11065;50.786;7.840;2023-04-08T12:57:12;19.20;48.50
21807;DHT22;11065;50.786;7.840;2023-04-08T12:59:40;19.20;48.10
21807;DHT22;11065;50.786;7.840;2023-04-08T13:02:08;19.10;47.30
21807;DHT22;11065;50.786;7.840;2023-04-08T13:04:37;19.10;46.90
21807;DHT22;11065;50.786;7.840;2023-04-08T13:07:06;19.00;46.50
21807;DHT22;11065;50.786;7.840;2023-04-08T13:09:34;18.80;47.40
21807;DHT22;11065;50.786;7.840;2023-04-08T13:12:02;18.70;47.60
21807;DHT22;11065;50.786;7.840;2023-04-08T13:14:31;18.60;47.10
21807;DHT22;11065;50.786;7.840;2023-04-08T13:16:59;18.50;47.10
21807;DHT22;11065;50.786;7.840;2023-04-08T13:19:27;18.50;47.00
21807;DHT22;11065;50.786;7.840;2023-04-08T13:21:55;18.50;47.70
21807;DHT22;11065;50.786;7.840;2023-04-08T13:24:25;18.40;47.80
21807;DHT22;11065;50.786;7.840;2023-04-08T13:26:53;18.50;47.80
21807;DHT22;11065;50.786;7.840;2023-04-08T13:29:21;18.50;47.80
21807;DHT22;11065;50.786;7.840;2023-04-08T13:31:49;18.50;47.70
21807;DHT22;11065;50.786;7.840;2023-04-08T13:34:19;18.50;47.50
21807;DHT22;11065;50.786;7.840;2023-04-08T13:36:47;18.50;46.70
21807;DHT22;11065;50.786;7.840;2023-04-08T13:39:15;18.50;46.60
21807;DHT22;11065;50.786;7.840;2023-04-08T13:41:45;18.40;47.00
21807;DHT22;11065;50.786;7.840;2023-04-08T13:44:13;18.40;47.10
21807;DHT22;11065;50.786;7.840;2023-04-08T13:46:42;18.30;47.10
21807;DHT22;11065;50.786;7.840;2023-04-08T13:49:10;18.30;47.20
21807;DHT22;11065;50.786;7.840;2023-04-08T13:51:39;18.20;47.20
21807;DHT22;11065;50.786;7.840;2023-04-08T13:54:07;18.20;47.00
21807;DHT22;11065;50.786;7.840;2023-04-08T13:56:35;18.20;46.30
21807;DHT22;11065;50.786;7.840;2023-04-08T13:59:04;18.10;47.00
21807;DHT22;11065;50.786;7.840;2023-04-08T14:01:33;18.10;47.30
21807;DHT22;11065;50.786;7.840;2023-04-08T14:04:01;18.10;47.60
21807;DHT22;11065;50.786;7.840;2023-04-08T14:06:29;18.20;47.80
21807;DHT22;11065;50.786;7.840;2023-04-08T14:08:57;18.30;48.00
21807;DHT22;11065;50.786;7.840;2023-04-08T14:11:25;18.40;47.90
21807;DHT22;11065;50.786;7.840;2023-04-08T14:13:53;18.50;47.60
21807;DHT22;11065;50.786;7.840;2023-04-08T14:16:22;18.50;46.80
21807;DHT22;11065;50.786;7.840;2023-04-08T14:18:50;18.50;46.80
21807;DHT22;11065;50.786;7.840;2023-04-08T14:21:19;18.50;46.80
21807;DHT22;11065;50.786;7.840;2023-04-08T14:23:47;18.40;46.80
21807;DHT22;11065;50.786;7.840;2023-04-08T14:26:15;18.40;46.90
21807;DHT22;11065;50.786;7.840;2023-04-08T14:28:43;18.40;46.70
21807;DHT22;11065;50.786;7.840;2023-04-08T14:31:11;18.40;46.30
21807;DHT22;11065;50.786;7.840;2023-04-08T14:33:40;18.30;46.20
21807;DHT22;11065;50.786;7.840;2023-04-08T14:36:09;18.30;46.40
21807;DHT22;11065;50.786;7.840;2023-04-08T14:38:37;18.20;46.40
21807;DHT22;11065;50.786;7.840;2023-04-08T14:41:06;18.20;46.60
21807;DHT22;11065;50.786;7.840;2023-04-08T14:43:36;18.20;46.70
21807;DHT22;11065;50.786;7.840;2023-04-08T14:46:04;18.20;46.70
21807;DHT22;11065;50.786;7.840;2023-04-08T14:48:33;18.10;46.60
21807;DHT22;11065;50.786;7.840;2023-04-08T14:51:02;18.10;46.40
21807;DHT22;11065;50.786;7.840;2023-04-08T14:53:30;18.00;46.10
21807;DHT22;11065;50.786;7.840;2023-04-08T14:55:59;18.00;46.40
21807;DHT22;11065;50.786;7.840;2023-04-08T14:58:27;17.90;46.40
21807;DHT22;11065;50.786;7.840;2023-04-08T15:00:55;17.90;46.60
21807;DHT22;11065;50.786;7.840;2023-04-08T15:03:23;17.80;46.50
21807;DHT22;11065;50.786;7.840;2023-04-08T15:05:54;17.80;46.40
21807;DHT22;11065;50.786;7.840;2023-04-08T15:08:24;17.70;46.30
21807;DHT22;11065;50.786;7.840;2023-04-08T15:10:55;17.60;45.90
21807;DHT22;11065;50.786;7.840;2023-04-08T15:13:23;17.50;45.80
21807;DHT22;11065;50.786;7.840;2023-04-08T15:15:51;17.40;45.90
21807;DHT22;11065;50.786;7.840;2023-04-08T15:18:19;17.20;46.00
21807;DHT22;11065;50.786;7.840;2023-04-08T15:20:47;17.20;46.10
21807;DHT22;11065;50.786;7.840;2023-04-08T15:23:15;17.00;46.30
21807;DHT22;11065;50.786;7.840;2023-04-08T15:25:45;16.90;46.50
21807;DHT22;11065;50.786;7.840;2023-04-08T15:28:13;16.90;46.80
21807;DHT22;11065;50.786;7.840;2023-04-08T15:30:42;16.80;46.80
21807;DHT22;11065;50.786;7.840;2023-04-08T15:33:10;16.80;47.10
21807;DHT22;11065;50.786;7.840;2023-04-08T15:35:38;16.70;47.20
21807;DHT22;11065;50.786;7.840;2023-04-08T15:38:06;16.70;47.30
21807;DHT22;11065;50.786;7.840;2023-04-08T15:40:34;16.70;47.30
21807;DHT22;11065;50.786;7.840;2023-04-08T15:43:04;16.70;47.50